createdAt,value
2018-04-23T00:02:25.552Z,21.80
2018-04-23T00:04:53.146Z,21.80
2018-04-23T00:07:20.706Z,21.70
2018-04-23T00:09:48.317Z,21.80
2018-04-23T00:12:15.897Z,21.70
2018-04-23T00:14:43.479Z,21.80
2018-04-23T00:17:11.062Z,21.80
2018-04-23T00:19:38.636Z,21.70
2018-04-23T00:22:06.238Z,21.80
2018-04-23T00:24:33.846Z,21.70
2018-04-23T00:27:01.422Z,21.70
2018-04-23T00:46:48.610Z,21.70
2018-04-23T00:49:16.184Z,21.70
2018-04-23T00:51:43.806Z,21.70
2018-04-23T00:54:11.367Z,21.70
2018-04-23T00:56:38.985Z,21.70
2018-04-23T00:59:06.597Z,21.70
2018-04-23T01:01:34.167Z,21.70
2018-04-23T01:04:02.508Z,21.70
2018-04-23T01:06:30.110Z,21.70
2018-04-23T01:08:57.722Z,21.70
2018-04-23T01:11:25.336Z,21.70
2018-04-23T01:13:52.937Z,21.70
2018-04-23T01:16:20.525Z,21.70
2018-04-23T01:18:48.142Z,21.70
2018-04-23T01:21:15.724Z,21.70
2018-04-23T01:23:43.324Z,21.70
2018-04-23T01:26:10.913Z,21.70
2018-04-23T01:28:38.488Z,21.70
2018-04-23T01:31:06.086Z,21.70
2018-04-23T01:33:33.642Z,21.70
2018-04-23T01:36:01.254Z,21.70
2018-04-23T01:38:28.872Z,21.70
2018-04-23T01:40:56.433Z,21.70
2018-04-23T01:43:24.642Z,21.60
2018-04-23T02:23:19.486Z,21.60
2018-04-23T02:25:47.077Z,21.60
2018-04-23T02:28:14.693Z,21.60
2018-04-23T02:30:42.275Z,21.60
2018-04-23T02:33:09.887Z,21.60
2018-04-23T02:35:37.471Z,21.60
2018-04-23T02:38:05.957Z,21.60
2018-04-23T02:40:33.558Z,21.60
2018-04-23T02:43:01.178Z,21.60
2018-04-23T02:45:28.769Z,21.60
2018-04-23T03:05:13.142Z,21.50
2018-04-23T03:07:40.762Z,21.50
2018-04-23T03:10:08.378Z,21.50
2018-04-23T03:12:36.003Z,21.50
2018-04-23T03:15:03.570Z,21.50
2018-04-23T03:17:31.624Z,21.50
2018-04-23T03:19:59.215Z,21.50
2018-04-23T03:22:26.798Z,21.50
2018-04-23T03:24:54.376Z,21.50
2018-04-23T03:27:21.935Z,21.50
2018-04-23T03:47:05.159Z,21.40
2018-04-23T03:49:32.734Z,21.40
2018-04-23T03:52:00.352Z,21.40
2018-04-23T03:54:28.005Z,21.40
2018-04-23T03:56:56.328Z,21.40
2018-04-23T03:59:23.940Z,21.30
2018-04-23T04:19:08.819Z,21.30
2018-04-23T04:21:36.444Z,21.30
2018-04-23T04:24:04.030Z,21.30
2018-04-23T04:26:31.702Z,21.30
2018-04-23T04:28:59.420Z,21.30
2018-04-23T04:31:27.046Z,21.30
2018-04-23T04:33:54.614Z,21.30
2018-04-23T04:36:22.218Z,21.30
2018-04-23T04:38:49.853Z,21.30
2018-04-23T04:41:17.481Z,21.30
2018-04-23T04:43:45.056Z,21.30
2018-04-23T04:46:12.711Z,21.30
2018-04-23T05:05:59.561Z,21.30
2018-04-23T05:08:27.134Z,21.30
2018-04-23T05:10:54.754Z,21.30
2018-04-23T05:13:22.343Z,21.30
2018-04-23T05:33:08.265Z,21.30
2018-04-23T05:35:35.838Z,21.30
2018-04-23T05:38:04.206Z,21.30
2018-04-23T05:40:31.765Z,21.30
2018-04-23T05:42:59.344Z,21.30
2018-04-23T05:45:26.914Z,21.30
2018-04-23T05:47:54.489Z,21.30
2018-04-23T05:50:22.065Z,21.30
2018-04-23T05:52:49.637Z,21.30
2018-04-23T05:55:17.213Z,21.30
2018-04-23T05:57:44.789Z,21.30
2018-04-23T06:00:12.367Z,21.30
2018-04-23T06:02:39.969Z,21.30
2018-04-23T06:05:07.582Z,21.30
2018-04-23T06:07:35.142Z,21.40
2018-04-23T06:10:02.760Z,21.40
2018-04-23T06:12:30.387Z,21.40
2018-04-23T06:14:58.013Z,21.40
2018-04-23T06:17:25.596Z,21.40
2018-04-23T06:19:53.166Z,21.40
2018-04-23T06:22:20.797Z,21.40
2018-04-23T06:24:48.375Z,21.40
2018-04-23T06:27:15.995Z,21.40
2018-04-23T06:29:43.576Z,21.40
2018-04-23T06:49:29.559Z,21.60
2018-04-23T06:51:57.126Z,21.60
2018-04-23T06:54:24.804Z,21.60
2018-04-23T06:56:52.408Z,21.60
2018-04-23T06:59:20.002Z,21.70
2018-04-23T07:01:47.616Z,21.70
2018-04-23T07:04:15.160Z,21.70
2018-04-23T07:06:42.737Z,21.70
2018-04-23T07:09:10.314Z,21.70
2018-04-23T07:11:37.885Z,21.70
2018-04-23T07:14:05.454Z,21.80
2018-04-23T07:16:33.074Z,21.80
2018-04-23T07:19:00.676Z,21.80
2018-04-23T07:21:28.245Z,21.80
2018-04-23T07:23:55.815Z,21.80
2018-04-23T07:26:23.429Z,21.90
2018-04-23T07:28:50.995Z,21.90
2018-04-23T07:31:18.582Z,21.90
2018-04-23T07:33:46.154Z,21.90
2018-04-23T07:36:13.740Z,21.90
2018-04-23T07:38:41.310Z,22.00
2018-04-23T07:41:08.881Z,22.00
2018-04-23T07:43:36.454Z,22.00
2018-04-23T07:46:04.020Z,22.00
2018-04-23T07:48:31.589Z,22.00
2018-04-23T07:50:59.151Z,22.10
2018-04-23T07:53:26.718Z,22.10
2018-04-23T07:55:54.279Z,22.10
2018-04-23T07:58:21.877Z,22.10
2018-04-23T08:00:49.466Z,22.10
2018-04-23T08:03:17.019Z,22.10
2018-04-23T08:05:44.591Z,22.10
2018-04-23T08:08:12.187Z,22.10
2018-04-23T08:10:39.797Z,22.10
2018-04-23T08:13:07.371Z,22.10
2018-04-23T08:15:34.944Z,22.20
2018-04-23T08:18:02.521Z,22.20
2018-04-23T08:20:30.100Z,22.20
2018-04-23T08:22:57.677Z,22.20
2018-04-23T08:25:25.309Z,22.20
2018-04-23T08:27:52.846Z,22.20
2018-04-23T08:30:20.416Z,22.20
2018-04-23T08:32:48.015Z,22.20
2018-04-23T08:35:15.611Z,22.20
2018-04-23T08:37:43.180Z,22.20
2018-04-23T08:40:10.751Z,22.20
2018-04-23T08:42:38.320Z,22.20
2018-04-23T08:45:05.923Z,22.20
2018-04-23T08:47:33.540Z,22.20
2018-04-23T08:50:01.122Z,22.10
2018-04-23T08:52:28.690Z,22.10
2018-04-23T08:54:56.304Z,22.10
2018-04-23T08:57:23.871Z,22.10
2018-04-23T08:59:51.440Z,22.10
2018-04-23T09:02:19.005Z,22.10
2018-04-23T09:04:46.564Z,22.00
2018-04-23T09:07:14.130Z,22.00
2018-04-23T09:09:41.687Z,22.00
2018-04-23T09:12:09.258Z,22.00
2018-04-23T09:14:36.823Z,22.00
2018-04-23T09:17:04.412Z,22.00
2018-04-23T09:19:31.968Z,22.00
2018-04-23T09:21:59.547Z,22.00
2018-04-23T09:24:27.132Z,22.00
2018-04-23T09:26:54.726Z,22.00
2018-04-23T09:29:22.319Z,21.90
2018-04-23T09:31:49.893Z,22.00
2018-04-23T09:34:17.483Z,22.00
2018-04-23T09:36:45.104Z,21.90
2018-04-23T09:39:12.677Z,21.90
2018-04-23T09:41:40.246Z,21.90
2018-04-23T09:44:07.813Z,21.90
2018-04-23T09:46:35.387Z,21.90
2018-04-23T09:49:03.020Z,21.90
2018-04-23T09:51:30.649Z,21.90
2018-04-23T09:53:58.222Z,21.90
2018-04-23T09:56:25.818Z,21.90
2018-04-23T09:58:53.406Z,21.90
2018-04-23T10:01:20.972Z,21.90
2018-04-23T10:03:50.480Z,21.80
2018-04-23T10:06:18.051Z,21.80
2018-04-23T10:08:45.628Z,21.80
2018-04-23T10:11:13.205Z,21.80
2018-04-23T10:13:40.788Z,21.80
2018-04-23T10:16:08.370Z,21.80
2018-04-23T10:35:55.190Z,21.70
2018-04-23T10:38:22.764Z,21.80
2018-04-23T10:40:50.346Z,21.70
2018-04-23T10:43:17.925Z,21.70
2018-04-23T10:45:45.498Z,21.70
2018-04-23T10:48:13.083Z,21.80
2018-04-23T10:50:40.660Z,21.70
2018-04-23T10:53:08.245Z,21.70
2018-04-23T10:55:35.822Z,21.70
2018-04-23T10:58:03.383Z,21.70
2018-04-23T11:00:30.978Z,21.70
2018-04-23T11:02:58.573Z,21.70
2018-04-23T11:05:26.189Z,21.70
2018-04-23T11:07:53.761Z,21.70
2018-04-23T11:10:21.341Z,21.70
2018-04-23T11:12:48.967Z,21.70
2018-04-23T11:15:16.555Z,21.70
2018-04-23T11:17:44.206Z,21.70
2018-04-23T11:20:11.789Z,21.70
2018-04-23T11:22:39.353Z,21.70
2018-04-23T11:25:06.938Z,21.70
2018-04-23T11:27:34.527Z,21.70
2018-04-23T11:30:02.142Z,21.70
2018-04-23T11:32:29.744Z,21.70
2018-04-23T11:34:57.311Z,21.70
2018-04-23T11:37:24.910Z,21.70
2018-04-23T11:39:52.487Z,21.70
2018-04-23T11:42:20.082Z,21.70
2018-04-23T11:44:47.711Z,21.70
2018-04-23T11:47:15.286Z,21.70
2018-04-23T11:49:42.859Z,21.70
2018-04-23T11:52:10.453Z,21.70
2018-04-23T11:54:38.053Z,21.70
2018-04-23T11:57:05.635Z,21.70
2018-04-23T11:59:33.222Z,21.70
2018-04-23T12:02:00.794Z,21.80
2018-04-23T12:04:28.411Z,21.70
2018-04-23T12:06:55.962Z,21.80
2018-04-23T12:09:23.526Z,21.80
2018-04-23T12:11:51.114Z,21.80
2018-04-23T12:14:18.697Z,21.80
2018-04-23T12:16:46.280Z,21.80
2018-04-23T12:19:13.872Z,21.80
2018-04-23T12:21:41.514Z,21.80
2018-04-23T12:24:09.039Z,21.80
2018-04-23T12:26:36.623Z,21.80
2018-04-23T12:29:04.196Z,21.80
2018-04-23T12:31:31.776Z,21.80
2018-04-23T12:33:59.357Z,21.80
2018-04-23T12:36:26.936Z,21.80
2018-04-23T12:38:54.514Z,21.80
2018-04-23T12:41:22.101Z,21.80
2018-04-23T12:43:49.717Z,21.90
2018-04-23T12:46:17.403Z,21.90
2018-04-23T12:48:44.942Z,21.90
2018-04-23T12:51:12.515Z,21.90
2018-04-23T12:53:40.085Z,21.90
2018-04-23T12:56:07.652Z,21.90
2018-04-23T12:58:35.211Z,21.90
2018-04-23T13:01:02.781Z,21.90
2018-04-23T13:03:30.374Z,21.90
2018-04-23T13:05:57.944Z,21.90
2018-04-23T13:25:43.577Z,22.00
2018-04-23T13:28:11.201Z,22.00
2018-04-23T13:30:38.790Z,22.00
2018-04-23T13:33:06.368Z,22.00
2018-04-23T13:35:33.946Z,22.00
2018-04-23T13:38:01.523Z,22.00
2018-04-23T13:40:29.091Z,22.00
2018-04-23T13:42:56.664Z,22.00
2018-04-23T13:45:24.238Z,22.10
2018-04-23T13:47:51.815Z,22.10
2018-04-23T13:50:19.390Z,22.10
2018-04-23T13:52:47.054Z,22.10
2018-04-23T14:12:32.780Z,22.10
2018-04-23T14:15:00.405Z,22.10
2018-04-23T14:17:27.966Z,22.10
2018-04-23T14:19:55.590Z,22.10
2018-04-23T14:22:23.248Z,22.10
2018-04-23T14:24:50.820Z,22.10
2018-04-23T14:27:18.438Z,22.10
2018-04-23T14:29:46.067Z,22.10
2018-04-23T14:49:33.318Z,22.10
2018-04-23T14:52:00.899Z,22.10
2018-04-23T14:54:28.780Z,22.10
2018-04-23T15:14:12.796Z,22.10
2018-04-23T15:33:56.922Z,22.10
2018-04-23T15:36:24.489Z,22.10
2018-04-23T15:56:10.059Z,22.00
2018-04-23T16:15:56.389Z,21.90
2018-04-23T16:18:24.117Z,21.90
2018-04-23T16:20:51.793Z,21.90
2018-04-23T16:43:29.883Z,21.90
2018-04-23T17:03:13.909Z,21.80
2018-04-23T17:05:41.477Z,21.80
2018-04-23T17:08:09.083Z,21.80
2018-04-23T17:10:36.652Z,21.80
2018-04-23T17:36:09.008Z,21.70
2018-04-23T17:38:36.602Z,21.70
2018-04-23T17:58:20.668Z,21.60
2018-04-23T18:00:48.293Z,21.60
2018-04-23T18:03:15.856Z,21.60
2018-04-23T18:05:43.432Z,21.60
2018-04-23T18:25:29.204Z,21.60
2018-04-23T18:27:56.801Z,21.60
2018-04-23T18:30:24.363Z,21.60
2018-04-23T18:50:11.283Z,21.60
2018-04-23T19:09:57.560Z,21.50
2018-04-23T19:29:42.862Z,21.50
2018-04-23T19:32:10.448Z,21.50
2018-04-23T19:51:55.861Z,21.50
2018-04-23T19:54:23.452Z,21.50
2018-04-23T19:56:51.036Z,21.50
2018-04-23T19:59:18.599Z,21.50
2018-04-23T20:01:46.185Z,21.50
2018-04-23T20:04:13.812Z,21.50
2018-04-23T20:06:41.454Z,21.50
2018-04-23T20:09:09.067Z,21.50
2018-04-23T20:11:36.581Z,21.50
2018-04-23T20:14:04.139Z,21.50
2018-04-23T20:33:50.130Z,21.40
2018-04-23T20:36:17.722Z,21.40
2018-04-23T20:38:45.381Z,21.40
2018-04-23T20:41:12.985Z,21.40
2018-04-23T20:43:40.564Z,21.40
2018-04-23T21:03:27.220Z,21.40
2018-04-23T21:05:54.821Z,21.40
2018-04-23T21:08:22.428Z,21.40
2018-04-23T21:10:50.038Z,21.40
2018-04-23T21:13:17.614Z,21.40
2018-04-23T21:15:45.198Z,21.40
2018-04-23T21:18:12.764Z,21.30
2018-04-23T21:20:40.349Z,21.30
2018-04-23T21:23:07.966Z,21.30
2018-04-23T21:25:35.588Z,21.30
2018-04-23T21:28:03.179Z,21.30
2018-04-23T21:30:30.756Z,21.30
2018-04-23T21:32:58.368Z,21.30
2018-04-23T21:35:26.018Z,21.30
2018-04-23T21:37:53.583Z,21.30
2018-04-23T21:40:21.246Z,21.30
2018-04-23T22:00:06.853Z,21.30
2018-04-23T22:02:34.475Z,21.30
2018-04-23T22:05:02.022Z,21.30
2018-04-23T22:07:29.663Z,21.30
2018-04-23T22:09:57.248Z,21.30
2018-04-23T22:12:24.856Z,21.30
2018-04-23T22:32:10.696Z,21.20
2018-04-23T22:52:00.701Z,21.20
2018-04-23T22:54:28.265Z,21.20
2018-04-23T22:56:55.863Z,21.20
2018-04-23T22:59:23.436Z,21.20
2018-04-23T23:19:10.339Z,21.10
2018-04-23T23:21:37.912Z,21.10
2018-04-23T23:52:55.394Z,21.10
2018-04-23T23:55:22.960Z,21.10
2018-04-23T23:57:50.565Z,21.10
